Time;durP1;ratioP1;P1;durP2;ratioP2;P2;SDS_P1;SDS_P2;PMS_P1;PMS_P2;Temp;Humidity;BMP_temperature;BMP_pressure;BME280_temperature;BME280_humidity;BME280_pressure;Samples;Min_cycle;Max_cycle;Signal;HPM_P1;HPM_P2
2021/04/25 17:16:54;;;;;;;11.85;8.00;;;23.10;39.10;;;;;;5131314;27;20293;-75
2021/04/25 17:19:20;;;;;;;8.10;3.20;;;22.60;38.40;;;;;;5115211;28;20503;-71
2021/04/25 17:21:46;;;;;;;6.85;3.35;;;22.30;37.90;;;;;;5108427;28;20103;-71
2021/04/25 17:24:12;;;;;;;3.50;1.55;;;22.40;37.60;;;;;;5108607;28;20036;-72
2021/04/25 17:26:37;;;;;;;5.28;1.60;;;21.70;37.20;;;;;;5109053;28;20476;-73
2021/04/25 17:29:04;;;;;;;6.60;2.03;;;21.80;38.00;;;;;;5106514;28;20503;-73
2021/04/25 17:31:30;;;;;;;6.63;1.80;;;22.10;37.90;;;;;;5108314;28;20500;-73
2021/04/25 17:33:56;;;;;;;4.65;1.38;;;21.50;38.00;;;;;;5101623;28;20114;-70
2021/04/25 17:36:23;;;;;;;4.13;1.20;;;21.30;38.40;;;;;;5088284;28;20067;-71
2021/04/25 17:38:50;;;;;;;5.28;1.60;;;21.00;38.90;;;;;;5094352;28;20027;-73
2021/04/25 17:41:17;;;;;;;4.35;1.58;;;20.80;39.70;;;;;;5106777;28;20102;-72
2021/04/25 17:43:42;;;;;;;1.83;1.30;;;21.00;39.10;;;;;;5103279;28;20021;-73
2021/04/25 17:46:10;;;;;;;5.65;1.38;;;20.70;39.40;;;;;;5070269;28;20081;-72
2021/04/25 17:48:36;;;;;;;3.67;1.63;;;20.70;39.60;;;;;;5096897;28;20035;-73
2021/04/25 17:51:03;;;;;;;5.43;1.73;;;20.50;40.10;;;;;;5107570;28;20549;-73
2021/04/25 17:53:28;;;;;;;4.75;1.70;;;20.30;40.10;;;;;;5107858;28;20032;-74
2021/04/25 17:55:55;;;;;;;3.83;1.50;;;20.10;40.80;;;;;;5113387;28;20028;-71
2021/04/25 17:58:22;;;;;;;3.85;1.17;;;19.90;41.00;;;;;;5116558;28;20027;-73
2021/04/25 18:00:47;;;;;;;4.03;1.48;;;19.70;40.00;;;;;;5117768;27;20031;-72
2021/04/25 18:03:14;;;;;;;5.35;1.65;;;19.20;42.10;;;;;;5116474;28;20035;-72
2021/04/25 18:05:40;;;;;;;3.00;1.20;;;18.70;43.20;;;;;;5114628;28;20032;-71
2021/04/25 18:08:06;;;;;;;4.07;1.20;;;18.20;44.10;;;;;;5116113;27;20396;-70
2021/04/25 18:10:32;;;;;;;3.83;1.23;;;17.40;45.60;;;;;;5108363;28;20369;-71
2021/04/25 18:13:01;;;;;;;3.65;1.42;;;16.80;46.70;;;;;;5107574;28;20414;-72
2021/04/25 18:15:28;;;;;;;5.82;1.80;;;16.40;47.70;;;;;;5086435;28;20115;-70
2021/04/25 18:17:57;;;;;;;6.53;1.95;;;16.00;48.70;;;;;;5086184;28;20028;-71
2021/04/25 18:20:23;;;;;;;3.53;1.60;;;15.70;49.30;;;;;;5105951;28;20012;-71
2021/04/25 18:22:49;;;;;;;3.97;1.65;;;15.40;50.20;;;;;;5107974;28;20537;-70
2021/04/25 18:25:16;;;;;;;2.58;1.25;;;15.20;50.80;;;;;;5089534;28;20054;-70
2021/04/25 18:27:43;;;;;;;4.00;1.38;;;15.00;50.00;;;;;;5076864;28;20037;-71
2021/04/25 18:30:11;;;;;;;4.72;1.30;;;14.80;52.50;;;;;;5089002;28;20504;-72
2021/04/25 18:32:37;;;;;;;5.85;1.90;;;14.60;52.70;;;;;;5093509;28;20044;-70
2021/04/25 18:35:06;;;;;;;5.00;1.65;;;14.30;53.60;;;;;;5075891;28;20025;-71
2021/04/25 18:37:34;;;;;;;4.22;1.48;;;14.20;53.90;;;;;;5073521;28;20033;-72
2021/04/25 18:40:00;;;;;;;3.70;1.30;;;14.40;55.00;;;;;;5087646;28;20074;-72
2021/04/25 18:42:26;;;;;;;4.38;1.45;;;14.00;55.60;;;;;;5093700;28;20443;-72
2021/04/25 18:44:51;;;;;;;3.78;1.38;;;14.00;55.80;;;;;;5093184;28;20028;-73
2021/04/25 18:47:19;;;;;;;4.82;1.42;;;14.00;56.60;;;;;;5093979;28;20036;-74
2021/04/25 18:49:45;;;;;;;6.30;1.70;;;14.20;57.10;;;;;;5079202;28;20032;-72
2021/04/25 18:52:11;;;;;;;3.63;1.50;;;13.60;57.30;;;;;;5073501;28;20032;-71
2021/04/25 18:54:38;;;;;;;3.58;1.35;;;13.40;57.60;;;;;;5085655;28;20028;-70
2021/04/25 18:57:03;;;;;;;4.20;1.30;;;13.60;58.30;;;;;;5093131;28;20028;-72
2021/04/25 18:59:29;;;;;;;3.92;1.38;;;13.20;58.00;;;;;;5081163;28;20420;-72
2021/04/25 19:01:56;;;;;;;4.53;1.85;;;13.30;58.70;;;;;;5072862;28;20515;-70
2021/04/25 19:04:22;;;;;;;4.47;1.48;;;13.40;59.10;;;;;;5083510;28;20048;-72
2021/04/25 19:06:47;;;;;;;5.93;1.20;;;13.30;59.00;;;;;;5093014;28;20059;-73
2021/04/25 19:09:13;;;;;;;4.88;1.50;;;13.90;59.30;;;;;;5097671;28;20403;-72
2021/04/25 19:11:39;;;;;;;7.55;1.85;;;12.80;59.10;;;;;;5102052;28;20540;-74
2021/04/25 19:14:05;;;;;;;2.10;0.90;;;13.10;59.40;;;;;;5104626;28;20438;-71
2021/04/25 19:16:31;;;;;;;3.65;1.45;;;12.70;60.30;;;;;;5091035;28;20032;-70
2021/04/25 19:18:58;;;;;;;4.38;1.50;;;12.60;60.00;;;;;;5092436;28;20397;-70
2021/04/25 19:21:24;;;;;;;4.45;1.20;;;12.80;60.20;;;;;;5092074;28;20103;-71
2021/04/25 19:23:51;;;;;;;3.88;1.80;;;12.40;60.40;;;;;;5086795;28;20091;-72
2021/04/25 19:26:17;;;;;;;4.03;1.40;;;12.30;59.50;;;;;;5072677;28;20039;-72
2021/04/25 19:28:45;;;;;;;8.30;1.50;;;12.20;61.40;;;;;;5077738;28;20028;-72
2021/04/25 19:31:15;;;;;;;2.80;1.25;;;12.00;62.20;;;;;;5091045;28;20036;-71
2021/04/25 19:33:41;;;;;;;3.90;1.40;;;11.90;60.90;;;;;;5088582;28;20048;-71
2021/04/25 19:36:08;;;;;;;3.55;1.50;;;14.20;64.00;;;;;;5072275;28;20405;-72
2021/04/25 19:38:35;;;;;;;2.72;1.35;;;11.70;62.90;;;;;;5071609;28;20469;-72
2021/04/25 19:41:01;;;;;;;5.65;1.30;;;12.10;63.00;;;;;;5091000;28;20031;-71
2021/04/25 19:43:27;;;;;;;3.83;1.25;;;11.70;63.70;;;;;;5098975;28;20020;-69
2021/04/25 19:45:52;;;;;;;6.30;1.40;;;11.60;64.10;;;;;;5102206;28;20039;-72
2021/04/25 19:48:21;;;;;;;5.07;1.30;;;12.10;64.90;;;;;;5073779;28;20034;-71
2021/04/25 19:50:54;;;;;;;4.40;1.70;;;11.50;65.60;;;;;;5092098;28;20507;-72
2021/04/25 19:53:20;;;;;;;2.85;1.50;;;11.40;63.80;;;;;;5101365;28;20035;-72
2021/04/25 19:55:47;;;;;;;3.42;1.40;;;11.30;65.70;;;;;;5101218;28;20032;-70
2021/04/25 19:58:14;;;;;;;7.78;1.40;;;11.30;64.50;;;;;;5102013;28;20024;-70
2021/04/25 20:00:47;;;;;;;4.75;1.60;;;11.40;66.30;;;;;;5100580;28;20032;-71
2021/04/25 20:03:13;;;;;;;5.85;1.50;;;11.00;66.70;;;;;;5100057;28;20039;-71
2021/04/25 20:05:40;;;;;;;3.55;1.50;;;11.00;66.70;;;;;;5082222;28;20498;-71
2021/04/25 20:08:12;;;;;;;6.80;1.75;;;11.90;67.50;;;;;;5099554;28;20016;-72
2021/04/25 20:10:38;;;;;;;4.50;1.55;;;11.10;67.50;;;;;;5101313;28;20031;-70
2021/04/25 20:13:09;;;;;;;2.53;1.48;;;10.90;67.30;;;;;;5099336;28;20076;-72
2021/04/25 20:15:35;;;;;;;6.07;1.60;;;10.80;67.30;;;;;;5102598;28;20036;-71
2021/04/25 20:18:01;;;;;;;4.93;1.40;;;11.00;67.60;;;;;;5098496;28;20145;-72
2021/04/25 20:20:30;;;;;;;4.55;2.28;;;11.00;67.70;;;;;;5099648;28;20572;-71
2021/04/25 20:22:57;;;;;;;6.63;1.63;;;10.80;67.90;;;;;;5100680;28;20028;-71
2021/04/25 20:25:27;;;;;;;2.90;1.23;;;10.70;67.50;;;;;;5102375;28;20054;-71
2021/04/25 20:27:56;;;;;;;4.72;1.40;;;10.70;67.50;;;;;;5097055;28;20024;-71
2021/04/25 20:30:26;;;;;;;5.93;2.00;;;11.10;67.50;;;;;;5091971;28;20028;-71
2021/04/25 20:32:53;;;;;;;6.28;1.70;;;10.80;67.30;;;;;;5092621;28;20115;-71
2021/04/25 20:35:18;;;;;;;3.80;1.70;;;10.60;65.10;;;;;;5089810;28;20040;-71
2021/04/25 20:37:45;;;;;;;6.75;1.90;;;10.50;66.90;;;;;;5092375;28;20027;-71
2021/04/25 20:40:19;;;;;;;3.30;1.65;;;11.00;67.10;;;;;;5072809;28;20028;-70
2021/04/25 20:42:45;;;;;;;9.00;1.75;;;10.60;67.30;;;;;;5091872;28;20027;-71
2021/04/25 20:45:12;;;;;;;3.80;1.27;;;10.40;67.20;;;;;;5092108;22;20083;-72
2021/04/25 20:47:38;;;;;;;4.63;1.58;;;10.30;67.20;;;;;;5072120;28;20077;-72
2021/04/25 20:50:05;;;;;;;7.43;1.85;;;10.40;67.40;;;;;;5062130;28;20026;-72
2021/04/25 20:52:31;;;;;;;6.13;1.98;;;10.20;67.50;;;;;;5059994;28;20131;-72
2021/04/25 20:54:56;;;;;;;5.43;1.60;;;10.30;67.80;;;;;;5047390;28;20540;-73
2021/04/25 20:57:24;;;;;;;4.15;1.75;;;10.20;68.00;;;;;;5040125;28;20025;-72
2021/04/25 20:59:49;;;;;;;6.35;1.83;;;10.70;68.80;;;;;;5042770;28;20037;-72
2021/04/25 21:02:15;;;;;;;5.50;1.75;;;10.00;68.40;;;;;;5040769;28;20025;-72
2021/04/25 21:04:41;;;;;;;5.80;1.58;;;10.20;69.50;;;;;;5041981;28;20032;-72
2021/04/25 21:07:06;;;;;;;4.78;2.05;;;10.10;69.40;;;;;;5041603;28;20155;-72
2021/04/25 21:09:32;;;;;;;5.50;2.30;;;9.80;70.40;;;;;;5043939;28;20119;-72
2021/04/25 21:11:58;;;;;;;8.57;3.45;;;9.60;70.40;;;;;;5052051;28;20493;-72
2021/04/25 21:14:26;;;;;;;6.43;3.25;;;10.10;71.00;;;;;;5038686;28;20030;-72
2021/04/25 21:16:52;;;;;;;7.82;3.28;;;9.30;70.00;;;;;;5031999;28;20034;-72
2021/04/25 21:19:18;;;;;;;8.15;2.90;;;9.30;72.80;;;;;;5030713;28;20500;-72
2021/04/25 21:21:44;;;;;;;5.88;3.25;;;9.10;73.10;;;;;;5031320;28;20029;-72
2021/04/25 21:24:10;;;;;;;9.40;3.22;;;9.80;74.20;;;;;;5031643;28;20425;-72
2021/04/25 21:26:35;;;;;;;5.50;2.38;;;9.20;74.10;;;;;;5030516;28;20079;-72
2021/04/25 21:29:01;;;;;;;5.72;2.00;;;9.30;74.50;;;;;;5030473;28;20038;-73
2021/04/25 21:31:26;;;;;;;8.30;3.47;;;9.20;74.50;;;;;;5032274;28;20030;-73
2021/04/25 21:33:53;;;;;;;5.45;1.60;;;9.50;74.40;;;;;;5031735;28;20080;-73
2021/04/25 21:36:18;;;;;;;6.63;1.88;;;9.40;74.60;;;;;;5031682;28;20038;-72
2021/04/25 21:38:44;;;;;;;4.80;1.70;;;9.50;74.80;;;;;;5030733;28;20104;-73
2021/04/25 21:41:10;;;;;;;8.07;2.00;;;8.90;74.30;;;;;;5049627;28;20091;-73
2021/04/25 21:43:38;;;;;;;3.65;1.48;;;9.30;74.80;;;;;;5049742;28;20025;-72
2021/04/25 21:46:06;;;;;;;7.75;1.58;;;9.30;74.60;;;;;;5051415;28;20061;-72
2021/04/25 21:48:32;;;;;;;3.83;1.65;;;9.20;73.90;;;;;;5045067;28;20026;-72
2021/04/25 21:50:57;;;;;;;2.55;1.27;;;9.20;75.60;;;;;;5030923;28;20114;-72
2021/04/25 21:53:23;;;;;;;3.38;1.60;;;9.40;76.20;;;;;;5031548;28;20484;-72
2021/04/25 21:55:49;;;;;;;3.97;1.40;;;9.40;76.50;;;;;;5031336;28;20486;-72
2021/04/25 21:58:15;;;;;;;3.53;1.30;;;9.90;76.50;;;;;;5031301;28;20018;-72
2021/04/25 22:00:54;;;;;;;4.43;1.25;;;9.40;76.40;;;;;;5031206;28;20060;-72
2021/04/25 22:03:28;;;;;;;4.38;1.40;;;9.20;76.00;;;;;;5034442;28;20018;-72
2021/04/25 22:05:55;;;;;;;1.65;0.80;;;9.00;75.50;;;;;;5036302;28;20026;-72
2021/04/25 22:08:23;;;;;;;4.97;1.23;;;9.60;76.80;;;;;;5035044;28;20409;-72
2021/04/25 22:10:58;;;;;;;4.18;1.13;;;8.90;77.50;;;;;;5051806;28;20044;-72
2021/04/25 22:13:24;;;;;;;3.30;1.17;;;8.90;76.70;;;;;;5054524;28;20053;-72
2021/04/25 22:15:50;;;;;;;2.58;0.98;;;9.40;75.90;;;;;;5053217;28;20060;-72
2021/04/25 22:18:17;;;;;;;2.78;1.52;;;10.10;76.40;;;;;;5054558;28;20075;-72
2021/04/25 22:20:43;;;;;;;4.28;1.50;;;9.20;76.40;;;;;;5054351;28;20021;-72
2021/04/25 22:23:11;;;;;;;3.05;1.10;;;9.20;77.00;;;;;;5052721;28;20029;-72
2021/04/25 22:25:38;;;;;;;2.47;0.90;;;8.80;78.60;;;;;;5053567;28;20041;-72
2021/04/25 22:28:06;;;;;;;4.53;1.23;;;9.60;80.20;;;;;;5046950;28;20037;-72
2021/04/25 22:30:41;;;;;;;7.13;1.17;;;8.50;81.20;;;;;;5034145;28;20060;-72
2021/04/25 22:33:08;;;;;;;3.47;1.10;;;8.40;81.20;;;;;;5035032;28;20030;-72
2021/04/25 22:35:36;;;;;;;4.80;1.05;;;8.30;82.40;;;;;;5034546;28;20029;-72
2021/04/25 22:38:03;;;;;;;2.47;0.80;;;8.50;80.80;;;;;;5034987;28;20092;-72
2021/04/25 22:40:29;;;;;;;5.15;1.20;;;8.60;80.10;;;;;;5045120;28;20091;-72
2021/04/25 22:42:54;;;;;;;2.35;0.90;;;8.90;80.60;;;;;;5034629;28;20069;-72
2021/04/25 22:45:22;;;;;;;3.80;1.33;;;8.70;80.50;;;;;;5034380;28;20044;-72
2021/04/25 22:47:50;;;;;;;2.58;0.73;;;8.70;80.40;;;;;;5034412;28;20032;-72
2021/04/25 22:50:17;;;;;;;6.18;1.30;;;8.40;81.00;;;;;;5033869;28;20490;-72
2021/04/25 22:52:43;;;;;;;5.68;1.48;;;8.40;82.00;;;;;;5034404;28;20531;-72
2021/04/25 22:55:09;;;;;;;2.85;1.00;;;8.40;83.10;;;;;;5033990;28;20108;-72
2021/04/25 22:57:35;;;;;;;4.10;1.15;;;8.10;83.90;;;;;;5035694;28;20021;-72
2021/04/25 23:00:03;;;;;;;7.25;1.27;;;8.20;84.10;;;;;;5052515;28;20040;-72
2021/04/25 23:02:28;;;;;;;4.40;1.08;;;9.10;84.80;;;;;;5053991;28;20393;-72
2021/04/25 23:04:54;;;;;;;3.17;1.05;;;8.40;85.80;;;;;;5052746;28;20025;-72
2021/04/25 23:07:20;;;;;;;3.47;0.95;;;8.10;86.50;;;;;;5053744;28;20537;-72
2021/04/25 23:09:45;;;;;;;4.32;1.08;;;8.00;87.20;;;;;;5053193;28;20075;-72
2021/04/25 23:12:12;;;;;;;4.75;1.20;;;8.00;87.90;;;;;;5052445;28;20036;-72
